Main page
METAR-TAF:

METAR-TAF

Airports :

Ingeniero Aeronáutico Ambrosio L.V. Taravella International Airport

Córdoba, Argentina

latitude: 31-19S, longitude: 064-13W, elevation: 484 m

Current weather observation

The report was made 25 minutes ago, at 14:00 UTC
Wind 2 kt from variable directions
Temperature 14°C
Humidity 55%
Pressure 1024 hPa
Visibility 10 km or more
no clouds below 1500 m and no cumulonimbus

METAR: SACO 171400Z VRB02KT CAVOK 14/05 Q1024 NOSIG

Time: 11:25 (14:25 UTC)

Forecast

The report was made 3 hours and 25 minutes ago, at 11:00 UTC
Forecast valid from 17 at 12 UTC to 18 at 12 UTC
Wind 15 kt from the North/Northeast
Visibility 10 km or more
no clouds below 1500 m and no cumulonimbus
Becoming
from 18 at 06 UTC to 18 at 09 UTC
Wind 10 kt from the North
Visibility 10 km or more
no clouds below 1500 m and no cumulonimbus

TAF: SACO 171100Z 1712/1812 02015KT CAVOK TX21/1718Z TN05/1810Z BECMG 1806/1809 36010KT CAVOK

Weather observations and forecasts of more than 4000 airports (METAR and TAF reports).

The available stations are represented by yellow and red dots on the map.

Hover mouse over dot to see the name of the station.

Then click to see weather observations and forecasts.

To change the map : click on the green buttons with a black cross to zoom in, on the green button with a dash to zoom out, or on the green arrows for adjacent maps.


METAR-TAF: